Shinyo Maru — JD3650 — position and weather

sailwx.info

Track history (hours):
 
Tides and Currents Weather Stations Pressure Air Temp Water Temp Dewpoint Dewpoint Depression Visibility Wind Speed Wind Dir Waves Ship Positions

Shinyo Maru

Last reported at 2017-Nov-15 07:07 UTC. Time now 2017-Nov-20 04:15 UTC.
Position N 34°56' E 139°22'.

Length 72 m; draft 3.8 m.

Type: Tanker. MMSI: 431005249.

Date/timePositionNaut miles runAvg speedWind from/ knotsBaromVisibWave heightAir tempDewpointWater temp
2017-Nov-15 07:07N 34°56' E 139°22'213.3
2017-Nov-15 06:59N 34°57' E 139°24'612.8
2017-Nov-15 06:29N 35°01' E 139°30'612.6
2017-Nov-15 06:00N 35°04' E 139°36'612.9
2017-Nov-15 05:30N 35°08' E 139°42'713.1
2017-Nov-15 05:00N 35°14' E 139°46'612.8
2017-Nov-15 04:30N 35°20' E 139°43'612.0
2017-Nov-15 04:00N 35°26' E 139°45'713.3
2017-Nov-15 03:30N 35°30' E 139°51'7 0.1
2017-Nov-13 02:00N 35°29' E 139°43'0 0.0
2017-Nov-13 01:30N 35°29' E 139°43'0 0.0
2017-Nov-13 01:00N 35°29' E 139°43'0 0.0
2017-Nov-13 00:30N 35°29' E 139°43'0 0.0
2017-Nov-13 00:00N 35°29' E 139°43'0 0.0
2017-Nov-12 23:30N 35°29' E 139°43'2 3.9
2017-Nov-12 23:00N 35°30' E 139°45'  
2017-Nov-10 08:47N 35°32' E 139°58'412.9
2017-Nov-10 08:30N 35°30' E 139°54'612.9
2017-Nov-10 08:00N 35°26' E 139°48'612.6
2017-Nov-10 07:30N 35°20' E 139°45'611.8
2017-Nov-10 07:00N 35°14' E 139°47'612.2
2017-Nov-10 06:30N 35°09' E 139°45'612.3
2017-Nov-10 06:00N 35°04' E 139°40'  
2017-Nov-05 13:41N 35°33' E 140°01'211.4
2017-Nov-05 13:30N 35°32' E 139°58'713.0
2017-Nov-05 13:00N 35°29' E 139°52'612.8
2017-Nov-05 12:30N 35°24' E 139°46'612.1
2017-Nov-05 12:00N 35°18' E 139°44'611.0
2017-Nov-05 11:30N 35°13' E 139°47'612.6
2017-Nov-05 11:00N 35°08' E 139°44'713.2
2017-Nov-05 10:30N 35°03' E 139°38'714.6
2017-Nov-05 10:00N 34°59' E 139°31'  
Track history (hours):
 
Tides and Currents Weather Stations Pressure Air Temp Water Temp Dewpoint Dewpoint Depression Visibility Wind Speed Wind Dir Waves Ship Positions

Shinyo Maru

Last reported at 2017-Nov-15 07:07 UTC. Time now 2017-Nov-20 04:15 UTC.
Position N 34°56' E 139°22'.

Length 72 m; draft 3.8 m.

Type: Tanker. MMSI: 431005249.

Date/timePositionNaut miles runAvg speedWind from/ knotsBaromVisibWave heightAir tempDewpointWater temp
2017-Nov-15 07:07N 34°56' E 139°22'213.3
2017-Nov-15 06:59N 34°57' E 139°24'612.8
2017-Nov-15 06:29N 35°01' E 139°30'612.6
2017-Nov-15 06:00N 35°04' E 139°36'612.9
2017-Nov-15 05:30N 35°08' E 139°42'713.1
2017-Nov-15 05:00N 35°14' E 139°46'612.8
2017-Nov-15 04:30N 35°20' E 139°43'612.0
2017-Nov-15 04:00N 35°26' E 139°45'713.3
2017-Nov-15 03:30N 35°30' E 139°51'7 0.1
2017-Nov-13 02:00N 35°29' E 139°43'0 0.0
2017-Nov-13 01:30N 35°29' E 139°43'0 0.0
2017-Nov-13 01:00N 35°29' E 139°43'0 0.0
2017-Nov-13 00:30N 35°29' E 139°43'0 0.0
2017-Nov-13 00:00N 35°29' E 139°43'0 0.0
2017-Nov-12 23:30N 35°29' E 139°43'2 3.9
2017-Nov-12 23:00N 35°30' E 139°45'  
2017-Nov-10 08:47N 35°32' E 139°58'412.9
2017-Nov-10 08:30N 35°30' E 139°54'612.9
2017-Nov-10 08:00N 35°26' E 139°48'612.6
2017-Nov-10 07:30N 35°20' E 139°45'611.8
2017-Nov-10 07:00N 35°14' E 139°47'612.2
2017-Nov-10 06:30N 35°09' E 139°45'612.3
2017-Nov-10 06:00N 35°04' E 139°40'  
2017-Nov-05 13:41N 35°33' E 140°01'211.4
2017-Nov-05 13:30N 35°32' E 139°58'713.0
2017-Nov-05 13:00N 35°29' E 139°52'612.8
2017-Nov-05 12:30N 35°24' E 139°46'612.1
2017-Nov-05 12:00N 35°18' E 139°44'611.0
2017-Nov-05 11:30N 35°13' E 139°47'612.6
2017-Nov-05 11:00N 35°08' E 139°44'713.2
2017-Nov-05 10:30N 35°03' E 139°38'714.6
2017-Nov-05 10:00N 34°59' E 139°31'  

Dump ship's entire track history